Time;durP1;ratioP1;P1;durP2;ratioP2;P2;SDS_P1;SDS_P2;PMS_P1;PMS_P2;Temp;Humidity;BMP_temperature;BMP_pressure;BME280_temperature;BME280_humidity;BME280_pressure;Samples;Min_cycle;Max_cycle;Signal;HPM_P1;HPM_P2
2021/07/28 00:02:26;;;;;;;9.83;7.23;;;;;;;;;;5032373;28;20221;-71
2021/07/28 00:05:30;;;;;;;11.80;8.17;;;;;;;;;;5015200;28;20186;-72
2021/07/28 00:08:34;;;;;;;9.17;8.17;;;;;;;;;;5033799;28;20188;-72
2021/07/28 00:11:38;;;;;;;9.73;8.27;;;;;;;;;;5033360;28;20225;-72
2021/07/28 00:14:42;;;;;;;13.77;8.20;;;;;;;;;;5033700;28;20536;-72
2021/07/28 00:17:50;;;;;;;13.43;9.20;;;;;;;;;;5034420;28;20180;-72
2021/07/28 00:24:16;;;;;;;9.80;8.53;;;;;;;;;;5026116;28;20667;-72
2021/07/28 00:27:21;;;;;;;9.07;7.77;;;;;;;;;;5032178;28;20647;-72
2021/07/28 00:30:26;;;;;;;8.50;7.13;;;;;;;;;;5032815;28;20185;-72
2021/07/28 00:33:30;;;;;;;7.50;5.63;;;;;;;;;;5014636;28;20229;-72
2021/07/28 00:36:34;;;;;;;11.10;6.57;;;;;;;;;;5015408;28;20177;-73
2021/07/28 00:39:38;;;;;;;6.70;6.00;;;;;;;;;;5033251;28;20192;-72
2021/07/28 00:42:42;;;;;;;7.80;6.10;;;;;;;;;;5033614;28;20216;-73
2021/07/28 00:45:47;;;;;;;6.90;6.20;;;;;;;;;;5032830;28;20204;-72
2021/07/28 00:48:52;;;;;;;8.70;6.70;;;;;;;;;;5033101;28;20192;-72
2021/07/28 00:52:02;;;;;;;8.87;6.70;;;;;;;;;;5032344;28;20221;-72
2021/07/28 00:55:07;;;;;;;8.93;6.60;;;;;;;;;;5033022;28;20196;-72
2021/07/28 00:58:11;;;;;;;8.80;7.03;;;;;;;;;;5032807;28;20188;-72
2021/07/28 01:01:15;;;;;;;8.67;6.63;;;;;;;;;;5025659;28;20189;-72
2021/07/28 01:04:20;;;;;;;10.67;6.70;;;;;;;;;;5032721;28;20184;-72
2021/07/28 01:07:24;;;;;;;10.70;7.33;;;;;;;;;;5033261;28;20571;-72
2021/07/28 01:10:28;;;;;;;10.80;7.63;;;;;;;;;;5032739;28;20200;-73
2021/07/28 01:13:35;;;;;;;10.57;7.37;;;;;;;;;;5030117;28;20224;-72
2021/07/28 01:16:41;;;;;;;10.07;7.57;;;;;;;;;;5033163;28;20196;-72
2021/07/28 01:19:52;;;;;;;8.77;6.70;;;;;;;;;;5032353;28;20208;-72
2021/07/28 01:22:57;;;;;;;8.70;6.37;;;;;;;;;;5032432;28;20220;-72
2021/07/28 01:26:03;;;;;;;12.17;6.70;;;;;;;;;;5032238;28;20181;-72
2021/07/28 01:29:09;;;;;;;8.47;6.37;;;;;;;;;;5021034;28;20181;-72
2021/07/28 01:32:14;;;;;;;7.07;5.80;;;;;;;;;;5032092;28;20224;-72
2021/07/28 01:35:21;;;;;;;7.20;5.87;;;;;;;;;;5031909;28;20197;-72
2021/07/28 01:38:26;;;;;;;7.90;6.40;;;;;;;;;;5043919;28;20636;-73
2021/07/28 01:41:31;;;;;;;7.17;6.17;;;;;;;;;;5032294;28;20173;-73
2021/07/28 01:44:37;;;;;;;6.80;5.83;;;;;;;;;;5013481;28;20182;-73
2021/07/28 01:47:45;;;;;;;8.07;6.30;;;;;;;;;;5030305;28;20192;-72
2021/07/28 01:50:50;;;;;;;9.23;6.10;;;;;;;;;;5033304;28;20185;-73
2021/07/28 01:53:54;;;;;;;7.20;6.00;;;;;;;;;;5031194;28;20220;-73
2021/07/28 01:56:58;;;;;;;9.27;5.67;;;;;;;;;;5032411;28;20200;-72
2021/07/28 02:00:03;;;;;;;10.23;5.70;;;;;;;;;;5032069;28;20181;-72
2021/07/28 02:03:11;;;;;;;10.73;6.60;;;;;;;;;;5031848;28;20205;-72
2021/07/28 02:06:15;;;;;;;9.63;5.90;;;;;;;;;;5020435;28;20189;-72
2021/07/28 02:09:19;;;;;;;7.03;6.20;;;;;;;;;;5032390;28;20188;-72
2021/07/28 02:12:23;;;;;;;10.47;6.17;;;;;;;;;;5021317;28;20213;-72
2021/07/28 02:15:28;;;;;;;6.50;5.80;;;;;;;;;;5035251;28;20189;-72
2021/07/28 02:18:33;;;;;;;7.93;5.20;;;;;;;;;;5035162;28;20192;-72
2021/07/28 02:21:38;;;;;;;7.00;5.83;;;;;;;;;;5035693;28;20536;-72
2021/07/28 02:24:42;;;;;;;7.10;6.40;;;;;;;;;;5035590;28;20655;-72
2021/07/28 02:27:47;;;;;;;9.30;6.37;;;;;;;;;;5036217;28;20180;-72
2021/07/28 02:30:51;;;;;;;7.60;6.20;;;;;;;;;;5035062;28;20185;-72
2021/07/28 02:33:55;;;;;;;8.00;6.10;;;;;;;;;;5035129;28;20213;-72
2021/07/28 02:36:59;;;;;;;10.33;5.80;;;;;;;;;;5035562;28;20200;-72
2021/07/28 02:40:04;;;;;;;7.23;5.47;;;;;;;;;;5035733;28;20184;-72
2021/07/28 02:43:08;;;;;;;6.87;6.07;;;;;;;;;;5034362;28;20216;-72
2021/07/28 02:46:12;;;;;;;10.10;6.20;;;;;;;;;;5035534;28;20184;-72
2021/07/28 02:49:16;;;;;;;9.03;6.03;;;;;;;;;;5035410;28;20540;-72
2021/07/28 02:52:20;;;;;;;7.37;6.07;;;;;;;;;;5035397;28;20228;-72
2021/07/28 02:55:24;;;;;;;7.83;5.90;;;;;;;;;;5035423;28;20263;-72
2021/07/28 02:58:28;;;;;;;12.67;6.17;;;;;;;;;;5035706;28;20353;-72
2021/07/28 03:01:33;;;;;;;9.77;6.87;;;;;;;;;;5033948;28;20193;-72
2021/07/28 03:04:37;;;;;;;7.20;6.10;;;;;;;;;;5034897;28;20184;-72
2021/07/28 03:07:41;;;;;;;11.73;6.63;;;;;;;;;;5035008;28;20184;-72
2021/07/28 03:10:46;;;;;;;7.50;6.40;;;;;;;;;;5024138;28;20644;-72
2021/07/28 03:13:50;;;;;;;9.30;6.50;;;;;;;;;;5034932;28;20213;-72
2021/07/28 03:16:53;;;;;;;10.47;6.13;;;;;;;;;;5033889;28;20188;-72
2021/07/28 03:19:57;;;;;;;9.87;6.77;;;;;;;;;;5034726;28;20216;-72
2021/07/28 03:23:02;;;;;;;7.63;6.80;;;;;;;;;;5030928;28;20679;-72
2021/07/28 03:25:50;;;;;;;10.93;6.53;;;;;;;;;;5052487;22;20236;-72
2021/07/28 03:28:54;;;;;;;10.43;7.17;;;;;;;;;;5031515;28;20200;-72
2021/07/28 03:31:58;;;;;;;7.43;6.53;;;;;;;;;;5042501;28;20213;-72
2021/07/28 03:35:03;;;;;;;6.80;6.10;;;;;;;;;;5023003;28;20648;-72
2021/07/28 03:38:07;;;;;;;9.37;6.77;;;;;;;;;;5021549;28;20189;-71
2021/07/28 03:41:11;;;;;;;11.47;6.57;;;;;;;;;;5023850;28;20534;-72
2021/07/28 03:44:15;;;;;;;10.67;7.03;;;;;;;;;;5011767;28;20196;-72
2021/07/28 03:47:19;;;;;;;8.43;6.67;;;;;;;;;;5022941;28;20192;-72
2021/07/28 03:50:24;;;;;;;8.20;6.40;;;;;;;;;;5022712;28;20185;-72
2021/07/28 03:53:28;;;;;;;9.10;7.30;;;;;;;;;;5024785;28;20216;-72
2021/07/28 03:56:32;;;;;;;7.93;6.77;;;;;;;;;;5011564;28;20193;-72
2021/07/28 03:59:37;;;;;;;10.83;6.50;;;;;;;;;;5024801;28;20529;-72
2021/07/28 04:02:41;;;;;;;9.03;6.50;;;;;;;;;;5021992;28;20212;-72
2021/07/28 04:05:45;;;;;;;8.80;6.43;;;;;;;;;;5024547;28;20185;-72
2021/07/28 04:08:49;;;;;;;9.73;7.03;;;;;;;;;;5024738;28;20177;-71
2021/07/28 04:11:53;;;;;;;8.80;6.53;;;;;;;;;;5023242;28;20209;-72
2021/07/28 04:14:58;;;;;;;11.30;6.70;;;;;;;;;;5022717;28;20182;-72
2021/07/28 04:18:02;;;;;;;7.33;6.50;;;;;;;;;;5023591;28;20649;-72
2021/07/28 04:21:06;;;;;;;7.23;6.53;;;;;;;;;;5024541;28;20188;-72
2021/07/28 04:24:11;;;;;;;6.83;6.20;;;;;;;;;;5024358;28;20208;-72
2021/07/28 04:27:15;;;;;;;8.47;6.00;;;;;;;;;;5021284;28;20181;-72
2021/07/28 04:30:19;;;;;;;7.10;5.90;;;;;;;;;;5037946;22;20227;-86
2021/07/28 04:33:23;;;;;;;6.70;5.63;;;;;;;;;;5035540;28;20550;-86
2021/07/28 04:36:27;;;;;;;11.83;6.97;;;;;;;;;;5029343;28;20208;-85
2021/07/28 04:39:34;;;;;;;8.27;6.40;;;;;;;;;;5022091;28;20184;-86
2021/07/28 04:42:39;;;;;;;9.90;6.33;;;;;;;;;;5027241;28;20195;-85
2021/07/28 04:45:43;;;;;;;8.00;6.83;;;;;;;;;;5013699;28;20543;-85
2021/07/28 04:48:49;;;;;;;8.60;6.30;;;;;;;;;;5041633;28;20536;-86
2021/07/28 04:51:53;;;;;;;8.70;6.73;;;;;;;;;;5009561;28;20225;-85
2021/07/28 04:54:58;;;;;;;8.07;6.00;;;;;;;;;;5006185;28;20208;-85
2021/07/28 04:58:02;;;;;;;12.67;6.97;;;;;;;;;;5024424;28;20543;-85
2021/07/28 05:01:06;;;;;;;9.37;6.30;;;;;;;;;;5036472;28;20220;-86
2021/07/28 05:04:11;;;;;;;10.30;6.57;;;;;;;;;;5041122;28;20200;-86
2021/07/28 05:07:16;;;;;;;8.20;6.30;;;;;;;;;;5029839;28;20566;-86
2021/07/28 05:10:20;;;;;;;10.33;6.67;;;;;;;;;;5026069;28;20216;-86
2021/07/28 05:13:24;;;;;;;9.00;6.47;;;;;;;;;;5021089;28;20207;-85
2021/07/28 05:16:28;;;;;;;7.80;6.57;;;;;;;;;;5017585;28;20632;-86
2021/07/28 05:19:32;;;;;;;7.87;6.80;;;;;;;;;;5020468;28;20204;-86
2021/07/28 05:22:36;;;;;;;8.20;6.20;;;;;;;;;;5021871;28;20655;-86
2021/07/28 05:25:40;;;;;;;9.33;6.23;;;;;;;;;;5008921;28;20196;-86
2021/07/28 05:28:44;;;;;;;15.23;6.30;;;;;;;;;;5009133;28;20180;-85
2021/07/28 05:31:48;;;;;;;12.50;6.30;;;;;;;;;;5006758;28;20228;-85
2021/07/28 05:34:53;;;;;;;7.33;5.57;;;;;;;;;;4998268;28;20676;-86
2021/07/28 05:38:02;;;;;;;8.93;6.00;;;;;;;;;;5013397;28;20177;-87
2021/07/28 05:41:06;;;;;;;6.03;5.13;;;;;;;;;;5014683;28;20216;-86
2021/07/28 05:44:10;;;;;;;8.60;5.37;;;;;;;;;;5012454;28;20185;-86
2021/07/28 05:47:15;;;;;;;11.13;5.57;;;;;;;;;;5006938;28;20520;-86
2021/07/28 05:50:18;;;;;;;5.80;5.17;;;;;;;;;;5008502;28;20572;-86
2021/07/28 05:53:23;;;;;;;9.00;5.50;;;;;;;;;;5012479;28;21303;-83
2021/07/28 05:56:28;;;;;;;5.70;5.10;;;;;;;;;;5012700;28;20652;-88
2021/07/28 05:59:32;;;;;;;6.70;5.53;;;;;;;;;;5012973;28;20181;-87
2021/07/28 06:02:36;;;;;;;7.10;5.17;;;;;;;;;;5011426;28;20185;-88
2021/07/28 06:05:40;;;;;;;10.30;5.60;;;;;;;;;;5012553;28;20181;-87
2021/07/28 06:08:45;;;;;;;7.00;4.77;;;;;;;;;;5010271;28;20189;-87
2021/07/28 06:11:49;;;;;;;6.30;5.03;;;;;;;;;;4999545;28;20216;-88
2021/07/28 06:14:53;;;;;;;9.73;5.87;;;;;;;;;;5022767;28;20557;-88
2021/07/28 06:17:58;;;;;;;8.47;5.60;;;;;;;;;;5017529;28;20189;-87
2021/07/28 06:21:01;;;;;;;6.13;5.17;;;;;;;;;;5012414;28;20216;-88
2021/07/28 06:24:05;;;;;;;6.57;4.90;;;;;;;;;;5015720;28;20192;-88
2021/07/28 06:27:10;;;;;;;9.03;5.67;;;;;;;;;;5022205;28;20193;-88
2021/07/28 06:30:15;;;;;;;11.13;5.20;;;;;;;;;;5022141;28;20232;-88
2021/07/28 06:33:20;;;;;;;9.10;6.30;;;;;;;;;;5011805;28;20185;-88
2021/07/28 06:36:24;;;;;;;7.73;5.40;;;;;;;;;;5012175;28;20200;-88
2021/07/28 06:39:28;;;;;;;8.10;5.87;;;;;;;;;;5009932;28;20188;-87
2021/07/28 06:42:32;;;;;;;8.70;5.83;;;;;;;;;;5025402;28;20509;-88
2021/07/28 06:45:36;;;;;;;8.60;6.07;;;;;;;;;;5021869;28;20197;-87
2021/07/28 06:48:41;;;;;;;7.47;6.00;;;;;;;;;;5024049;28;20200;-87
2021/07/28 06:51:45;;;;;;;7.63;5.90;;;;;;;;;;5042484;28;20219;-87
2021/07/28 06:54:49;;;;;;;7.60;5.70;;;;;;;;;;4988649;28;20221;-87
2021/07/28 06:57:53;;;;;;;11.57;6.50;;;;;;;;;;4988990;28;20197;-87
2021/07/28 07:00:59;;;;;;;8.70;6.53;;;;;;;;;;5021966;28;20227;-88
2021/07/28 07:04:03;;;;;;;6.70;6.10;;;;;;;;;;5031956;28;20192;-87
2021/07/28 07:07:07;;;;;;;8.20;6.70;;;;;;;;;;5030677;28;20195;-87
2021/07/28 07:10:12;;;;;;;8.90;7.30;;;;;;;;;;5039210;28;20216;-88
2021/07/28 07:13:16;;;;;;;13.20;6.57;;;;;;;;;;5040708;28;20192;-87
2021/07/28 07:16:24;;;;;;;9.47;7.13;;;;;;;;;;5034489;28;20192;-88
2021/07/28 07:19:29;;;;;;;10.50;6.87;;;;;;;;;;5014655;28;20198;-87
2021/07/28 07:22:33;;;;;;;11.23;7.10;;;;;;;;;;5005857;28;20255;-87
2021/07/28 07:25:36;;;;;;;9.67;7.23;;;;;;;;;;5034004;28;20185;-87
2021/07/28 07:28:41;;;;;;;9.83;7.20;;;;;;;;;;5031685;28;20184;-87
2021/07/28 07:31:45;;;;;;;8.23;6.80;;;;;;;;;;5027571;28;20254;-87
2021/07/28 07:34:50;;;;;;;10.13;7.77;;;;;;;;;;5031590;28;20207;-88
2021/07/28 07:37:54;;;;;;;9.57;7.60;;;;;;;;;;5031667;28;20176;-87
2021/07/28 07:40:58;;;;;;;10.53;7.67;;;;;;;;;;5031610;28;20211;-87
2021/07/28 07:44:03;;;;;;;11.30;8.30;;;;;;;;;;5031706;28;20180;-87
2021/07/28 07:47:07;;;;;;;9.87;8.43;;;;;;;;;;5019188;28;20180;-87
2021/07/28 07:50:12;;;;;;;12.00;9.17;;;;;;;;;;5020213;28;20224;-87
2021/07/28 07:53:16;;;;;;;9.37;7.97;;;;;;;;;;5031098;28;20183;-87
2021/07/28 07:56:20;;;;;;;12.93;8.27;;;;;;;;;;5023469;28;20177;-87
2021/07/28 07:59:25;;;;;;;11.93;7.47;;;;;;;;;;5031330;28;20187;-87
2021/07/28 08:02:31;;;;;;;8.83;7.83;;;;;;;;;;5031137;28;20195;-87
2021/07/28 08:05:35;;;;;;;10.03;8.33;;;;;;;;;;5031057;28;20168;-87
2021/07/28 08:08:39;;;;;;;9.40;8.37;;;;;;;;;;5031147;28;20176;-87
2021/07/28 08:11:43;;;;;;;9.97;8.50;;;;;;;;;;5019506;28;20216;-87
2021/07/28 08:14:48;;;;;;;10.73;8.00;;;;;;;;;;5030476;28;20220;-87
2021/07/28 08:17:52;;;;;;;10.47;8.10;;;;;;;;;;5027880;28;20571;-87
2021/07/28 08:20:57;;;;;;;10.23;8.53;;;;;;;;;;5036231;28;20223;-87
2021/07/28 08:24:01;;;;;;;11.50;9.10;;;;;;;;;;5030705;28;20184;-87
2021/07/28 08:27:05;;;;;;;10.33;8.80;;;;;;;;;;5030634;28;20634;-87
2021/07/28 08:30:09;;;;;;;13.03;10.20;;;;;;;;;;5041670;28;20232;-87
2021/07/28 08:33:14;;;;;;;12.70;9.67;;;;;;;;;;5030505;28;20187;-87
2021/07/28 08:36:18;;;;;;;11.77;9.50;;;;;;;;;;5030697;28;20180;-87
2021/07/28 08:39:22;;;;;;;10.93;9.17;;;;;;;;;;5030584;28;20180;-87
2021/07/28 08:42:29;;;;;;;9.77;8.73;;;;;;;;;;5030594;28;20188;-87
2021/07/28 08:45:33;;;;;;;11.00;9.67;;;;;;;;;;5041802;28;20172;-87
2021/07/28 08:48:38;;;;;;;11.57;8.63;;;;;;;;;;5030487;28;20500;-88
2021/07/28 08:51:43;;;;;;;10.33;8.73;;;;;;;;;;5030126;28;20223;-87
2021/07/28 08:54:47;;;;;;;13.10;9.33;;;;;;;;;;5041424;28;20208;-87
2021/07/28 08:57:51;;;;;;;10.50;9.03;;;;;;;;;;5030350;28;20181;-87
2021/07/28 09:00:56;;;;;;;15.40;10.23;;;;;;;;;;5018764;28;20223;-87
2021/07/28 09:04:00;;;;;;;12.63;9.20;;;;;;;;;;5016477;28;20681;-87
2021/07/28 09:07:14;;;;;;;10.60;9.10;;;;;;;;;;5030271;28;20180;-87
2021/07/28 09:10:18;;;;;;;11.47;9.37;;;;;;;;;;5041349;28;20556;-86
2021/07/28 09:13:42;;;;;;;10.73;9.20;;;;;;;;;;5029890;28;20532;-87
2021/07/28 09:16:46;;;;;;;10.63;9.63;;;;;;;;;;5030380;28;20188;-87
2021/07/28 09:19:50;;;;;;;12.47;9.57;;;;;;;;;;5027825;28;20188;-87
2021/07/28 09:23:10;;;;;;;12.97;10.53;;;;;;;;;;5005579;28;20186;-86
2021/07/28 09:26:26;;;;;;;13.23;10.20;;;;;;;;;;5028203;28;20200;-84
2021/07/28 09:29:32;;;;;;;11.07;9.80;;;;;;;;;;5034136;28;20219;-85
2021/07/28 09:32:57;;;;;;;10.60;8.80;;;;;;;;;;5045895;28;20628;-85
2021/07/28 09:36:01;;;;;;;11.40;10.10;;;;;;;;;;5027301;28;20208;-85
2021/07/28 09:39:05;;;;;;;12.10;9.83;;;;;;;;;;5043253;28;20202;-84
2021/07/28 09:42:14;;;;;;;15.00;9.27;;;;;;;;;;5033066;28;20504;-84
2021/07/28 09:45:27;;;;;;;13.97;10.23;;;;;;;;;;5043848;28;20188;-84
2021/07/28 09:48:36;;;;;;;13.13;9.33;;;;;;;;;;5025957;28;20204;-85
2021/07/28 09:51:43;;;;;;;13.33;10.23;;;;;;;;;;5028257;28;20216;-84
2021/07/28 09:54:50;;;;;;;13.13;10.10;;;;;;;;;;5033424;28;20286;-85
2021/07/28 09:58:00;;;;;;;13.20;10.77;;;;;;;;;;5031243;28;20705;-83
2021/07/28 10:01:04;;;;;;;12.87;10.07;;;;;;;;;;5021883;28;20219;-83
2021/07/28 10:04:11;;;;;;;10.63;9.50;;;;;;;;;;5024557;28;20188;-83
2021/07/28 10:07:17;;;;;;;13.10;10.27;;;;;;;;;;5043938;28;20184;-83
2021/07/28 10:10:21;;;;;;;14.80;10.53;;;;;;;;;;5024558;28;20231;-83
2021/07/28 10:13:26;;;;;;;12.83;11.33;;;;;;;;;;5021972;28;20188;-83
2021/07/28 10:16:32;;;;;;;13.07;10.23;;;;;;;;;;5024321;28;20232;-83
2021/07/28 10:19:36;;;;;;;12.47;10.07;;;;;;;;;;5032334;28;20203;-84
2021/07/28 10:22:42;;;;;;;11.87;10.43;;;;;;;;;;5033150;28;20662;-85
2021/07/28 10:25:46;;;;;;;13.77;11.27;;;;;;;;;;5020673;28;20195;-84
2021/07/28 10:28:50;;;;;;;12.90;11.00;;;;;;;;;;5035978;28;20208;-84
2021/07/28 10:31:55;;;;;;;14.70;11.43;;;;;;;;;;5030438;28;20231;-85
2021/07/28 10:35:17;;;;;;;14.10;11.60;;;;;;;;;;5033662;28;20215;-84
2021/07/28 10:38:21;;;;;;;13.10;11.07;;;;;;;;;;5026348;28;20702;-85
2021/07/28 10:41:38;;;;;;;15.60;10.03;;;;;;;;;;5029288;28;20219;-84
2021/07/28 10:44:57;;;;;;;14.10;10.77;;;;;;;;;;5020630;28;20207;-84
2021/07/28 10:48:01;;;;;;;14.87;11.40;;;;;;;;;;5012227;28;20543;-84
2021/07/28 10:51:05;;;;;;;13.23;10.03;;;;;;;;;;5025784;28;20230;-85
2021/07/28 10:54:09;;;;;;;13.57;8.97;;;;;;;;;;5028387;28;20625;-84
2021/07/28 10:57:32;;;;;;;11.50;8.63;;;;;;;;;;5023665;28;20196;-84
2021/07/28 11:00:39;;;;;;;11.07;9.03;;;;;;;;;;5021022;28;20220;-84
2021/07/28 11:03:44;;;;;;;12.37;8.83;;;;;;;;;;5022377;28;20192;-86
2021/07/28 11:06:48;;;;;;;11.17;9.50;;;;;;;;;;5011782;28;20655;-85
2021/07/28 11:10:04;;;;;;;10.73;8.77;;;;;;;;;;5029678;28;20192;-85
2021/07/28 11:13:13;;;;;;;11.60;8.27;;;;;;;;;;5028967;28;20200;-84
2021/07/28 11:16:17;;;;;;;10.27;8.60;;;;;;;;;;5008913;28;20224;-85
2021/07/28 11:19:21;;;;;;;7.80;6.77;;;;;;;;;;5002207;28;20197;-84
2021/07/28 11:22:26;;;;;;;8.13;6.20;;;;;;;;;;4991281;28;20201;-84
2021/07/28 11:25:33;;;;;;;8.67;6.40;;;;;;;;;;5019643;28;20181;-85
2021/07/28 11:28:37;;;;;;;7.87;6.30;;;;;;;;;;5038962;28;20200;-84
2021/07/28 11:31:44;;;;;;;8.47;6.00;;;;;;;;;;5029727;28;20227;-84
2021/07/28 11:34:55;;;;;;;6.60;5.90;;;;;;;;;;5025487;28;20196;-84
2021/07/28 11:38:26;;;;;;;6.97;5.70;;;;;;;;;;5028825;28;20188;-85
2021/07/28 11:41:30;;;;;;;9.83;5.60;;;;;;;;;;5012109;28;20220;-85
2021/07/28 11:44:39;;;;;;;7.23;5.47;;;;;;;;;;4989358;28;20610;-85
2021/07/28 11:47:43;;;;;;;6.57;5.40;;;;;;;;;;5019743;28;20185;-84
2021/07/28 11:50:47;;;;;;;5.83;5.17;;;;;;;;;;5027136;28;20216;-84
2021/07/28 11:54:13;;;;;;;6.03;4.77;;;;;;;;;;5028599;28;20203;-84
2021/07/28 11:57:18;;;;;;;5.20;4.67;;;;;;;;;;5018489;28;20172;-84
2021/07/28 12:00:30;;;;;;;6.47;5.60;;;;;;;;;;5028871;28;20219;-83
2021/07/28 12:03:36;;;;;;;6.07;5.33;;;;;;;;;;5023911;28;20533;-84
2021/07/28 12:06:43;;;;;;;6.70;5.37;;;;;;;;;;5031489;28;20172;-84
2021/07/28 12:09:59;;;;;;;8.57;5.70;;;;;;;;;;5022275;28;20196;-85
2021/07/28 12:13:19;;;;;;;6.63;5.60;;;;;;;;;;5012207;28;20196;-84
2021/07/28 12:16:24;;;;;;;6.13;5.53;;;;;;;;;;5028716;28;20208;-85
2021/07/28 12:19:39;;;;;;;6.60;6.00;;;;;;;;;;5031193;28;20200;-85
2021/07/28 12:22:44;;;;;;;9.57;5.73;;;;;;;;;;5018762;28;20192;-84
2021/07/28 12:25:48;;;;;;;7.97;6.77;;;;;;;;;;5028877;28;20187;-85
2021/07/28 12:28:52;;;;;;;8.83;5.80;;;;;;;;;;5031414;28;20180;-84
2021/07/28 12:31:56;;;;;;;7.27;5.43;;;;;;;;;;5030678;28;20223;-84
2021/07/28 12:35:03;;;;;;;6.20;5.60;;;;;;;;;;4992635;28;20182;-84
2021/07/28 12:38:17;;;;;;;7.37;5.40;;;;;;;;;;5011647;28;20192;-89
2021/07/28 12:41:23;;;;;;;8.10;5.37;;;;;;;;;;5030454;28;20229;-86
2021/07/28 12:44:27;;;;;;;8.77;5.30;;;;;;;;;;5029653;28;20204;-86
2021/07/28 12:47:31;;;;;;;6.53;5.87;;;;;;;;;;5034156;28;20176;-86
2021/07/28 12:50:38;;;;;;;6.97;4.93;;;;;;;;;;5030843;28;20224;-86
2021/07/28 12:53:42;;;;;;;7.97;5.60;;;;;;;;;;5021747;28;20192;-87
2021/07/28 12:56:46;;;;;;;5.20;4.70;;;;;;;;;;5032117;28;20212;-85
2021/07/28 12:59:51;;;;;;;6.97;5.20;;;;;;;;;;5011115;28;20188;-84
2021/07/28 13:02:55;;;;;;;7.10;4.67;;;;;;;;;;5029276;28;20188;-84
2021/07/28 13:06:09;;;;;;;5.90;4.77;;;;;;;;;;5029737;28;20196;-84
2021/07/28 13:09:13;;;;;;;4.83;4.07;;;;;;;;;;5029588;28;20200;-84
2021/07/28 13:12:17;;;;;;;5.20;3.57;;;;;;;;;;5036779;28;20196;-83
2021/07/28 13:15:23;;;;;;;5.00;3.67;;;;;;;;;;5037907;28;20191;-84
2021/07/28 13:18:28;;;;;;;4.80;3.80;;;;;;;;;;5038760;28;20191;-83
2021/07/28 13:21:32;;;;;;;4.60;4.10;;;;;;;;;;5028408;28;20220;-86
2021/07/28 13:24:36;;;;;;;5.40;3.80;;;;;;;;;;5002963;28;20184;-86
2021/07/28 13:27:41;;;;;;;6.30;3.80;;;;;;;;;;5025927;28;20197;-87
2021/07/28 13:30:45;;;;;;;5.70;4.10;;;;;;;;;;5015790;28;20232;-86
2021/07/28 13:33:49;;;;;;;4.17;3.77;;;;;;;;;;5030621;28;20184;-85
2021/07/28 13:36:54;;;;;;;5.50;3.50;;;;;;;;;;5010037;28;20204;-86
2021/07/28 13:39:59;;;;;;;4.13;3.50;;;;;;;;;;5030773;28;20223;-86
2021/07/28 13:43:03;;;;;;;3.50;3.20;;;;;;;;;;5030337;28;20188;-86
2021/07/28 13:46:07;;;;;;;5.47;3.60;;;;;;;;;;5022078;28;20192;-86
2021/07/28 13:49:11;;;;;;;4.13;3.50;;;;;;;;;;5000612;28;20196;-86
2021/07/28 13:52:15;;;;;;;5.37;3.60;;;;;;;;;;5011228;28;20189;-86
2021/07/28 13:55:20;;;;;;;5.13;3.60;;;;;;;;;;5022957;28;20196;-86
2021/07/28 13:58:24;;;;;;;4.30;3.83;;;;;;;;;;5022815;28;20184;-86
2021/07/28 14:01:28;;;;;;;4.07;3.50;;;;;;;;;;5011968;28;20220;-86
2021/07/28 14:04:32;;;;;;;4.07;3.60;;;;;;;;;;5014445;28;20204;-86
2021/07/28 14:07:37;;;;;;;4.33;3.50;;;;;;;;;;5045630;28;20180;-86
2021/07/28 14:10:41;;;;;;;3.30;3.00;;;;;;;;;;5029598;28;20220;-86
2021/07/28 14:13:45;;;;;;;3.90;3.50;;;;;;;;;;5033102;28;20191;-85
2021/07/28 14:16:50;;;;;;;5.80;3.63;;;;;;;;;;5015975;28;20205;-86
2021/07/28 14:19:54;;;;;;;4.70;3.40;;;;;;;;;;5022213;28;20192;-85
2021/07/28 14:22:57;;;;;;;3.83;3.37;;;;;;;;;;5030323;28;20176;-86
2021/07/28 14:26:02;;;;;;;5.17;3.80;;;;;;;;;;5027043;28;20541;-84
2021/07/28 14:29:07;;;;;;;4.87;3.50;;;;;;;;;;5028212;28;20192;-86
2021/07/28 14:32:11;;;;;;;5.20;3.50;;;;;;;;;;5032815;28;20192;-86
2021/07/28 14:35:15;;;;;;;4.33;3.87;;;;;;;;;;5026060;28;20197;-86
2021/07/28 14:38:19;;;;;;;3.90;3.47;;;;;;;;;;5044211;28;20536;-86
2021/07/28 14:41:24;;;;;;;4.27;3.37;;;;;;;;;;5044438;28;20219;-86
2021/07/28 14:44:28;;;;;;;3.77;3.30;;;;;;;;;;5032606;28;20172;-86
2021/07/28 14:47:32;;;;;;;3.50;3.10;;;;;;;;;;5043053;28;20532;-87
2021/07/28 14:50:36;;;;;;;3.13;2.83;;;;;;;;;;5026312;28;20216;-86
2021/07/28 14:53:40;;;;;;;8.30;3.90;;;;;;;;;;5030311;28;20193;-86
2021/07/28 14:56:44;;;;;;;4.37;3.60;;;;;;;;;;5032450;28;20212;-86
2021/07/28 14:59:48;;;;;;;5.93;3.00;;;;;;;;;;5028974;28;20529;-85
2021/07/28 15:02:53;;;;;;;3.97;3.43;;;;;;;;;;5029207;28;20184;-86
2021/07/28 15:05:57;;;;;;;5.67;4.13;;;;;;;;;;5032036;28;20180;-86
2021/07/28 15:09:01;;;;;;;7.57;3.30;;;;;;;;;;5032752;28;20528;-87
2021/07/28 15:12:06;;;;;;;6.57;3.60;;;;;;;;;;5032376;28;20185;-87
2021/07/28 15:15:11;;;;;;;4.00;3.60;;;;;;;;;;5031550;28;20202;-86
2021/07/28 15:18:15;;;;;;;4.03;3.27;;;;;;;;;;5029459;28;20197;-86
2021/07/28 15:21:19;;;;;;;4.87;3.60;;;;;;;;;;5035652;28;20213;-86
2021/07/28 15:24:23;;;;;;;3.80;3.40;;;;;;;;;;5023234;28;20178;-86
2021/07/28 15:27:27;;;;;;;3.80;3.40;;;;;;;;;;5031644;28;20199;-86
2021/07/28 15:30:31;;;;;;;3.30;3.00;;;;;;;;;;5042535;28;20226;-86
2021/07/28 15:33:36;;;;;;;3.67;3.20;;;;;;;;;;5024593;28;20184;-86
2021/07/28 15:36:39;;;;;;;3.87;3.13;;;;;;;;;;5004427;28;20208;-86
2021/07/28 15:40:04;;;;;;;4.87;3.10;;;;;;;;;;4993393;28;20193;-86
2021/07/28 15:43:09;;;;;;;3.27;2.97;;;;;;;;;;5010062;28;20201;-87
2021/07/28 15:46:13;;;;;;;4.60;3.43;;;;;;;;;;5028693;28;20189;-87
2021/07/28 15:49:17;;;;;;;3.53;3.00;;;;;;;;;;5031788;28;20191;-86
2021/07/28 15:52:21;;;;;;;4.37;3.33;;;;;;;;;;5031192;28;20186;-86
2021/07/28 15:55:26;;;;;;;4.13;3.20;;;;;;;;;;5024447;28;20199;-87
2021/07/28 15:58:30;;;;;;;4.10;2.73;;;;;;;;;;5018795;28;20191;-85
2021/07/28 16:01:35;;;;;;;3.57;2.67;;;;;;;;;;5033796;28;20228;-87
2021/07/28 16:04:40;;;;;;;4.33;2.80;;;;;;;;;;5023579;28;20213;-87
2021/07/28 16:07:44;;;;;;;3.50;3.00;;;;;;;;;;4994389;28;20179;-87
2021/07/28 16:10:48;;;;;;;4.13;3.63;;;;;;;;;;5019219;28;20222;-86
2021/07/28 16:14:00;;;;;;;4.87;3.20;;;;;;;;;;5029298;28;20198;-86
2021/07/28 16:17:33;;;;;;;3.53;2.77;;;;;;;;;;5026137;28;20217;-87
2021/07/28 16:20:39;;;;;;;2.93;2.67;;;;;;;;;;5033706;28;20222;-86
2021/07/28 16:23:49;;;;;;;3.27;2.97;;;;;;;;;;5033047;28;20549;-87
2021/07/28 16:26:53;;;;;;;3.27;2.83;;;;;;;;;;5028839;28;20190;-84
2021/07/28 16:29:57;;;;;;;3.50;2.77;;;;;;;;;;5038779;28;20656;-83
2021/07/28 16:33:03;;;;;;;2.77;2.43;;;;;;;;;;5026794;28;20648;-84
2021/07/28 16:36:07;;;;;;;4.10;2.60;;;;;;;;;;5040451;28;20173;-84
2021/07/28 16:39:28;;;;;;;3.83;2.60;;;;;;;;;;5031687;28;20185;-82
2021/07/28 16:42:32;;;;;;;4.30;2.50;;;;;;;;;;5041034;28;20200;-83
2021/07/28 16:45:37;;;;;;;3.40;2.73;;;;;;;;;;5036850;28;20197;-84
2021/07/28 16:48:41;;;;;;;3.37;2.67;;;;;;;;;;5038594;28;20201;-84
2021/07/28 16:51:45;;;;;;;2.73;2.30;;;;;;;;;;5033347;28;20217;-85
2021/07/28 16:54:50;;;;;;;4.27;2.20;;;;;;;;;;5032557;28;20184;-86
2021/07/28 16:57:56;;;;;;;5.00;2.90;;;;;;;;;;5030459;28;20212;-84
2021/07/28 17:01:00;;;;;;;4.83;2.80;;;;;;;;;;5029266;28;20556;-86
2021/07/28 17:04:05;;;;;;;3.63;2.20;;;;;;;;;;5040383;28;20912;-86
2021/07/28 17:07:09;;;;;;;4.07;2.57;;;;;;;;;;5040089;28;20639;-86
2021/07/28 17:10:13;;;;;;;3.10;2.73;;;;;;;;;;5028164;28;20871;-87
2021/07/28 17:13:17;;;;;;;2.57;2.37;;;;;;;;;;5027714;28;20532;-87
2021/07/28 17:16:22;;;;;;;2.80;2.50;;;;;;;;;;5024206;28;20200;-87
2021/07/28 17:19:26;;;;;;;5.37;2.50;;;;;;;;;;4982028;28;20202;-87
2021/07/28 17:22:34;;;;;;;5.13;2.40;;;;;;;;;;4987459;28;20178;-87
2021/07/28 17:25:39;;;;;;;3.43;2.53;;;;;;;;;;4987310;28;20185;-87
2021/07/28 17:28:43;;;;;;;3.30;2.40;;;;;;;;;;4987845;28;20178;-86
2021/07/28 17:31:47;;;;;;;4.67;2.70;;;;;;;;;;4987525;28;20229;-87
2021/07/28 17:34:52;;;;;;;2.70;2.33;;;;;;;;;;4987630;28;20197;-86
2021/07/28 17:37:56;;;;;;;2.30;2.10;;;;;;;;;;4998625;28;20205;-87
2021/07/28 17:41:06;;;;;;;3.63;2.70;;;;;;;;;;4999454;28;20216;-87
2021/07/28 17:44:11;;;;;;;3.27;2.57;;;;;;;;;;5002299;28;20186;-87
2021/07/28 17:47:15;;;;;;;20.70;11.43;;;;;;;;;;4990967;28;20181;-88
2021/07/28 17:50:19;;;;;;;21.50;14.57;;;;;;;;;;4993437;28;20220;-87
2021/07/28 17:53:24;;;;;;;31.67;20.10;;;;;;;;;;5005907;28;20220;-85
2021/07/28 17:56:28;;;;;;;4.80;3.27;;;;;;;;;;4994283;28;20663;-86
2021/07/28 17:59:32;;;;;;;5.47;3.00;;;;;;;;;;5003230;28;20189;-86
2021/07/28 18:02:39;;;;;;;4.77;2.87;;;;;;;;;;5003213;28;20177;-86
2021/07/28 18:05:44;;;;;;;6.53;2.67;;;;;;;;;;4992994;28;20529;-86
2021/07/28 18:08:49;;;;;;;2.70;2.40;;;;;;;;;;4993161;28;20186;-86
2021/07/28 18:11:53;;;;;;;4.73;3.00;;;;;;;;;;4993122;28;20680;-86
2021/07/28 18:15:01;;;;;;;4.27;2.67;;;;;;;;;;5003456;28;20637;-86
2021/07/28 18:18:05;;;;;;;3.53;2.87;;;;;;;;;;5002969;28;20209;-85
2021/07/28 18:21:10;;;;;;;5.10;3.20;;;;;;;;;;5002375;28;20221;-86
2021/07/28 18:24:14;;;;;;;9.20;4.90;;;;;;;;;;5041943;28;20196;-85
2021/07/28 18:27:18;;;;;;;3.37;2.80;;;;;;;;;;5011301;28;20181;-85
2021/07/28 18:30:23;;;;;;;3.43;2.57;;;;;;;;;;5034554;28;20598;-86